createdAt,value
2023-03-17T06:00:16.184Z,73.60
2023-03-17T06:05:19.570Z,73.60
2023-03-17T06:10:23.283Z,74.10
2023-03-17T06:15:29.027Z,73.50
2023-03-17T06:20:32.637Z,71.90
2023-03-17T06:25:37.049Z,73.80
2023-03-17T06:30:42.012Z,73.80
2023-03-17T06:35:46.061Z,73.70
2023-03-17T06:40:49.435Z,74.10
2023-03-17T06:45:54.233Z,74.00
2023-03-17T06:50:57.725Z,73.70
2023-03-17T06:56:01.066Z,74.40
2023-03-17T07:01:07.741Z,74.80
2023-03-17T07:06:11.254Z,74.60
2023-03-17T07:11:14.782Z,75.40
2023-03-17T07:16:21.096Z,75.90
2023-03-17T07:21:24.694Z,75.10
2023-03-17T07:26:28.165Z,75.70
2023-03-17T07:31:33.122Z,75.60
2023-03-17T07:36:36.522Z,74.80
2023-03-17T07:41:40.058Z,75.20
2023-03-17T07:46:47.263Z,75.30
2023-03-17T07:51:50.695Z,75.30
2023-03-17T07:56:54.148Z,76.20
2023-03-17T08:02:01.333Z,76.70
2023-03-17T08:07:06.330Z,76.50
2023-03-17T08:12:10.371Z,77.30
2023-03-17T08:17:15.290Z,77.50
2023-03-17T08:22:19.365Z,77.40
2023-03-17T08:27:23.175Z,77.40
2023-03-17T08:32:27.968Z,77.80
2023-03-17T08:37:31.487Z,77.40
2023-03-17T08:42:34.835Z,77.60
2023-03-17T08:47:40.299Z,77.30
2023-03-17T08:52:43.694Z,76.70
2023-03-17T08:57:47.390Z,77.40
2023-03-17T09:02:52.262Z,77.50
2023-03-17T09:07:55.670Z,76.90
2023-03-17T09:13:03.143Z,77.30
2023-03-17T09:18:08.639Z,77.50
2023-03-17T09:23:12.121Z,75.60
2023-03-17T09:28:15.566Z,74.80
2023-03-17T09:33:20.302Z,73.40
2023-03-17T09:38:23.826Z,70.90
2023-03-17T09:43:29.894Z,70.10
2023-03-17T09:48:40.994Z,69.40
2023-03-17T09:53:48.834Z,69.60
2023-03-17T09:58:53.953Z,71.60
2023-03-17T10:03:58.830Z,73.90
2023-03-17T10:09:05.599Z,75.30
2023-03-17T10:14:18.254Z,73.60
2023-03-17T10:19:28.153Z,72.40
2023-03-17T10:24:32.840Z,72.00
2023-03-17T10:29:36.297Z,71.40
2023-03-17T10:34:41.565Z,70.90
2023-03-17T10:39:47.221Z,70.90
2023-03-17T10:44:51.920Z,70.40
2023-03-17T10:49:57.312Z,71.60
2023-03-17T10:55:06.953Z,73.00
2023-03-17T11:00:14.601Z,74.00
2023-03-17T11:05:23.556Z,75.40
2023-03-17T11:10:27.904Z,76.50
2023-03-17T11:15:34.161Z,74.90
2023-03-17T11:20:44.067Z,72.00
2023-03-17T11:25:50.721Z,69.70
2023-03-17T11:30:59.543Z,67.80
2023-03-17T11:36:10.665Z,67.60
2023-03-17T11:41:32.844Z,66.60
2023-03-17T11:46:38.214Z,67.10
2023-03-17T11:51:50.730Z,65.90
2023-03-17T11:56:55.859Z,67.80
2023-03-17T12:02:02.268Z,68.90
2023-03-17T12:07:11.946Z,66.50
2023-03-17T12:12:18.901Z,64.90
2023-03-17T12:17:25.873Z,63.40
2023-03-17T12:22:35.706Z,62.10
2023-03-17T12:27:42.405Z,60.50
2023-03-17T12:32:50.156Z,59.90
2023-03-17T12:37:55.174Z,60.70
2023-03-17T12:43:04.592Z,59.00
2023-03-17T12:48:19.522Z,58.40
2023-03-17T12:53:33.360Z,58.30
2023-03-17T12:58:38.942Z,59.00
2023-03-17T13:03:47.355Z,58.60
2023-03-17T13:08:53.660Z,59.20
2023-03-17T13:13:59.586Z,58.10
2023-03-17T13:19:14.531Z,58.10
2023-03-17T13:24:36.269Z,58.90
2023-03-17T13:29:47.291Z,58.80
2023-03-17T13:34:53.098Z,58.40
2023-03-17T13:40:11.097Z,58.50
2023-03-17T13:45:18.752Z,59.60
2023-03-17T13:50:23.937Z,60.20
2023-03-17T13:55:36.552Z,61.20
2023-03-17T14:00:41.448Z,61.20
2023-03-17T14:05:47.778Z,61.80
2023-03-17T14:10:55.857Z,61.50
2023-03-17T14:16:03.866Z,61.10
2023-03-17T14:21:11.760Z,61.10
2023-03-17T14:26:16.710Z,61.70
2023-03-17T14:31:23.022Z,60.60
2023-03-17T14:36:27.215Z,59.70
2023-03-17T14:41:34.643Z,60.80
2023-03-17T14:46:38.700Z,61.20
2023-03-17T14:51:43.045Z,62.00
2023-03-17T14:56:49.770Z,62.60
2023-03-17T15:01:54.959Z,63.10
2023-03-17T15:06:59.596Z,63.10
2023-03-17T15:12:06.844Z,63.30
2023-03-17T15:17:16.866Z,63.80
2023-03-17T15:22:25.169Z,65.40
2023-03-17T15:27:30.126Z,66.50
2023-03-17T15:32:33.495Z,68.80
2023-03-17T15:37:36.910Z,70.00
2023-03-17T15:42:42.176Z,70.20
2023-03-17T15:47:46.999Z,70.70
2023-03-17T15:52:53.740Z,71.10
2023-03-17T15:57:58.775Z,71.00
2023-03-17T16:03:05.577Z,70.40
2023-03-17T16:08:11.410Z,70.70
2023-03-17T16:13:16.193Z,70.80
2023-03-17T16:18:21.253Z,71.00
2023-03-17T16:23:26.303Z,70.80
2023-03-17T16:28:31.982Z,70.50
2023-03-17T16:33:39.188Z,70.60
2023-03-17T16:38:42.644Z,72.10
2023-03-17T16:43:50.960Z,72.60
2023-03-17T16:48:54.335Z,73.10
2023-03-17T16:53:57.688Z,73.30
2023-03-17T16:59:02.584Z,73.10
2023-03-17T17:04:10.084Z,73.10
2023-03-17T17:09:13.499Z,73.20
2023-03-17T17:14:18.358Z,74.00
2023-03-17T17:19:22.045Z,73.70
2023-03-17T17:24:25.556Z,73.80
2023-03-17T17:29:32.329Z,74.40
2023-03-17T17:34:35.860Z,75.10
2023-03-17T17:39:39.146Z,75.40
2023-03-17T17:44:43.920Z,75.30
2023-03-17T17:49:47.237Z,75.40
2023-03-17T17:54:50.748Z,75.30
2023-03-17T17:59:55.853Z,75.30
2023-03-17T18:05:00.995Z,75.30
2023-03-17T18:10:04.758Z,75.90
2023-03-17T18:15:11.161Z,76.70
2023-03-17T18:20:16.321Z,76.60
2023-03-17T18:25:20.234Z,76.40
2023-03-17T18:30:26.393Z,76.40
2023-03-17T18:35:29.965Z,76.10
2023-03-17T18:40:33.860Z,76.30
2023-03-17T18:45:38.836Z,76.50
2023-03-17T18:50:42.279Z,76.80
2023-03-17T18:55:45.661Z,77.50
2023-03-17T19:00:50.872Z,77.80
2023-03-17T19:05:54.284Z,77.30
2023-03-17T19:10:57.666Z,77.40
2023-03-17T19:16:02.590Z,78.20
2023-03-17T19:21:06.333Z,78.80
2023-03-17T19:26:10.490Z,79.90
2023-03-17T19:31:15.390Z,81.50
2023-03-17T19:36:18.808Z,82.70
2023-03-17T19:41:22.131Z,83.90
2023-03-17T19:46:27.267Z,85.00
2023-03-17T19:51:30.902Z,84.80
2023-03-17T19:56:34.305Z,86.50
2023-03-17T20:01:39.462Z,87.90
2023-03-17T20:06:42.838Z,88.30
2023-03-17T20:11:46.299Z,89.70
2023-03-17T20:16:52.073Z,89.90
2023-03-17T20:21:55.431Z,89.60
2023-03-17T20:26:59.566Z,89.70
2023-03-17T20:32:04.762Z,90.00
2023-03-17T20:37:08.679Z,90.10
2023-03-17T20:42:14.558Z,90.70
2023-03-17T20:47:19.437Z,91.00
2023-03-17T20:52:22.799Z,91.00
2023-03-17T20:57:26.354Z,91.40
2023-03-17T21:02:31.226Z,91.60
2023-03-17T21:07:34.852Z,91.50
2023-03-17T21:12:38.346Z,92.00
2023-03-17T21:17:43.242Z,91.90
2023-03-17T21:22:46.592Z,91.60
2023-03-17T21:27:50.480Z,91.70
2023-03-17T21:32:55.688Z,91.50
2023-03-17T21:37:59.123Z,91.70
2023-03-17T21:43:02.492Z,91.80
2023-03-17T21:48:07.418Z,92.10
2023-03-17T21:53:11.011Z,92.00
2023-03-17T21:58:14.402Z,91.90
2023-03-17T22:03:19.219Z,91.90
2023-03-17T22:08:23.538Z,91.50
2023-03-17T22:13:27.127Z,91.30
2023-03-17T22:18:32.469Z,91.90
2023-03-17T22:23:40.833Z,91.70
2023-03-17T22:28:44.911Z,91.90
2023-03-17T22:33:50.092Z,92.00
2023-03-17T22:38:53.462Z,91.90
2023-03-17T22:43:56.910Z,92.10
2023-03-17T22:49:01.682Z,92.30
2023-03-17T22:54:05.344Z,92.20
2023-03-17T22:59:08.719Z,92.70
2023-03-17T23:04:14.093Z,93.20
2023-03-17T23:09:17.486Z,93.00
2023-03-17T23:14:20.794Z,92.70
2023-03-17T23:19:25.801Z,93.00
2023-03-17T23:24:29.135Z,93.00
2023-03-17T23:29:32.800Z,93.20
